createdAt,value
2023-12-17T00:00:17.409Z,0.00
2023-12-17T00:01:18.091Z,0.00
2023-12-17T00:02:19.023Z,0.00
2023-12-17T00:03:21.064Z,0.00
2023-12-17T00:04:21.062Z,0.00
2023-12-17T00:06:23.094Z,0.00
2023-12-17T00:07:23.952Z,0.00
2023-12-17T00:08:24.959Z,0.00
2023-12-17T00:09:25.996Z,0.00
2023-12-17T00:10:32.093Z,0.00
2023-12-17T00:11:27.967Z,0.00
2023-12-17T00:12:28.996Z,0.00
2023-12-17T00:13:29.988Z,0.00
2023-12-17T00:14:30.945Z,0.00
2023-12-17T00:15:32.159Z,0.00
2023-12-17T00:16:38.029Z,0.00
2023-12-17T00:17:34.058Z,0.00
2023-12-17T00:18:35.438Z,0.00
2023-12-17T00:19:36.045Z,0.00
2023-12-17T00:20:36.976Z,0.00
2023-12-17T00:21:37.998Z,0.00
2023-12-17T00:22:40.316Z,0.00
2023-12-17T00:23:40.067Z,0.00
2023-12-17T00:24:40.957Z,0.00
2023-12-17T00:25:42.098Z,0.00
2023-12-17T00:28:45.031Z,0.00
2023-12-17T00:29:46.004Z,0.00
2023-12-17T00:30:47.219Z,0.00
2023-12-17T00:31:47.970Z,0.00
2023-12-17T00:32:52.328Z,0.00
2023-12-17T00:33:50.127Z,0.00
2023-12-17T00:34:51.009Z,0.00
2023-12-17T00:35:52.067Z,0.00
2023-12-17T00:36:53.011Z,0.00
2023-12-17T00:37:54.014Z,0.00
2023-12-17T00:38:55.089Z,0.00
2023-12-17T00:39:55.969Z,0.00
2023-12-17T00:40:57.019Z,0.00
2023-12-17T00:41:58.072Z,0.00
2023-12-17T00:42:58.981Z,0.00
2023-12-17T00:43:59.987Z,0.00
2023-12-17T00:45:01.435Z,0.00
2023-12-17T00:46:02.045Z,0.00
2023-12-17T00:47:03.006Z,0.00
2023-12-17T00:48:04.241Z,0.00
2023-12-17T00:49:05.151Z,0.00
2023-12-17T00:50:06.094Z,0.00
2023-12-17T00:51:07.072Z,0.00
2023-12-17T00:52:08.017Z,0.00
2023-12-17T00:53:09.053Z,0.00
2023-12-17T00:54:10.103Z,0.00
2023-12-17T00:55:11.021Z,0.00
2023-12-17T00:56:12.025Z,0.00
2023-12-17T00:57:13.067Z,0.00
2023-12-17T00:58:14.005Z,0.00
2023-12-17T00:59:15.000Z,0.00
2023-12-17T01:00:16.316Z,0.00
2023-12-17T01:01:17.082Z,0.00
2023-12-17T01:02:18.006Z,0.00
2023-12-17T01:03:19.137Z,0.00
2023-12-17T01:04:20.016Z,0.00
2023-12-17T01:05:21.017Z,0.00
2023-12-17T01:06:22.147Z,0.00
2023-12-17T01:07:23.000Z,0.00
2023-12-17T01:08:24.007Z,0.00
2023-12-17T01:09:25.070Z,0.00
2023-12-17T01:10:26.050Z,0.00
2023-12-17T01:11:27.016Z,0.00
2023-12-17T01:12:28.032Z,0.00
2023-12-17T01:13:30.970Z,0.00
2023-12-17T01:14:30.063Z,0.00
2023-12-17T01:15:31.332Z,0.00
2023-12-17T01:16:32.036Z,0.00
2023-12-17T01:17:33.123Z,0.00
2023-12-17T01:18:36.802Z,0.00
2023-12-17T01:19:35.142Z,0.00
2023-12-17T01:20:36.056Z,0.00
2023-12-17T01:21:37.024Z,0.00
2023-12-17T01:22:38.033Z,0.00
2023-12-17T01:23:39.013Z,0.00
2023-12-17T01:24:40.095Z,0.00
2023-12-17T01:25:41.059Z,0.00
2023-12-17T01:26:42.045Z,0.00
2023-12-17T01:27:43.031Z,0.00
2023-12-17T01:28:44.026Z,0.00
2023-12-17T01:29:45.059Z,0.00
2023-12-17T01:30:46.465Z,0.00
2023-12-17T01:31:47.237Z,0.00
2023-12-17T01:32:48.347Z,0.00
2023-12-17T01:33:49.565Z,0.00
2023-12-17T01:34:50.626Z,0.00
2023-12-17T01:35:52.047Z,0.00
2023-12-17T01:36:52.061Z,0.00
2023-12-17T01:37:53.043Z,0.00
2023-12-17T01:38:54.124Z,0.00
2023-12-17T01:39:55.096Z,0.00
2023-12-17T01:40:56.061Z,0.00
2023-12-17T01:41:57.126Z,0.00
2023-12-17T01:42:58.088Z,0.00
2023-12-17T01:43:59.058Z,0.00
2023-12-17T01:45:00.173Z,0.00
2023-12-17T01:46:01.278Z,0.00
2023-12-17T01:47:02.065Z,0.00
2023-12-17T01:48:03.230Z,0.00
2023-12-17T01:49:04.204Z,0.00
2023-12-17T01:50:05.062Z,0.00
2023-12-17T01:51:06.300Z,0.00
2023-12-17T01:52:07.069Z,0.00
2023-12-17T01:53:08.060Z,0.00
2023-12-17T01:54:09.177Z,0.00
2023-12-17T01:55:10.118Z,0.00
2023-12-17T01:56:11.075Z,0.00
2023-12-17T01:57:12.130Z,0.00
2023-12-17T01:58:13.061Z,0.00
2023-12-17T01:59:14.173Z,0.00
2023-12-17T02:00:15.319Z,0.00
2023-12-17T02:01:16.197Z,0.00
2023-12-17T02:02:17.185Z,0.00
2023-12-17T02:03:18.300Z,0.00
2023-12-17T02:04:19.124Z,0.00
2023-12-17T02:05:20.104Z,0.00
2023-12-17T02:06:21.115Z,0.00
2023-12-17T02:07:22.078Z,0.00
2023-12-17T02:08:23.086Z,0.00
2023-12-17T02:09:24.121Z,0.00
2023-12-17T02:10:25.154Z,0.00
2023-12-17T02:11:26.107Z,0.00
2023-12-17T02:12:27.175Z,0.00
2023-12-17T02:13:28.082Z,0.00
2023-12-17T02:14:29.110Z,0.00
2023-12-17T02:15:30.425Z,0.00
2023-12-17T02:16:31.135Z,0.00
2023-12-17T02:17:32.280Z,0.00
2023-12-17T02:18:33.243Z,0.00
2023-12-17T02:19:34.333Z,0.00
2023-12-17T02:20:35.106Z,0.00
2023-12-17T02:21:36.121Z,0.00
2023-12-17T02:22:37.144Z,0.00
2023-12-17T02:23:38.105Z,0.00
2023-12-17T02:24:39.095Z,0.00
2023-12-17T02:25:40.216Z,0.00
2023-12-17T02:26:41.116Z,0.00
2023-12-17T02:27:42.299Z,0.00
2023-12-17T02:28:43.101Z,0.00
2023-12-17T02:29:44.133Z,0.00
2023-12-17T02:30:45.392Z,0.00
2023-12-17T02:31:46.127Z,0.00
2023-12-17T02:32:47.188Z,0.00
2023-12-17T02:33:48.268Z,0.00
2023-12-17T02:34:49.287Z,0.00
2023-12-17T02:35:50.237Z,0.00
2023-12-17T02:36:51.142Z,0.00
2023-12-17T02:37:52.164Z,0.00
2023-12-17T02:38:53.181Z,0.00
2023-12-17T02:39:54.125Z,0.00
2023-12-17T02:40:55.166Z,0.00
2023-12-17T02:41:56.169Z,0.00
2023-12-17T02:42:57.123Z,0.00
2023-12-17T02:43:58.180Z,0.00
2023-12-17T02:44:59.141Z,0.00
2023-12-17T02:46:00.369Z,0.00
2023-12-17T02:47:01.148Z,0.00
2023-12-17T02:48:02.218Z,0.00
2023-12-17T02:49:03.262Z,0.00
2023-12-17T02:50:04.188Z,0.00
2023-12-17T02:51:05.180Z,0.00
2023-12-17T02:52:06.359Z,0.00
2023-12-17T02:53:07.127Z,0.00
2023-12-17T02:54:08.183Z,0.00
2023-12-17T02:55:09.160Z,0.00
2023-12-17T02:56:10.211Z,0.00
2023-12-17T02:57:11.227Z,0.00
2023-12-17T02:58:12.145Z,0.00
2023-12-17T02:59:13.437Z,0.00
2023-12-17T03:00:14.407Z,0.00
2023-12-17T03:01:15.175Z,0.00
2023-12-17T03:02:16.245Z,0.00
2023-12-17T03:03:17.264Z,0.00
2023-12-17T03:04:18.240Z,0.00
2023-12-17T03:05:19.256Z,0.00
2023-12-17T03:06:20.211Z,0.00
2023-12-17T03:08:22.228Z,0.00
2023-12-17T03:09:23.296Z,0.00
2023-12-17T03:10:24.175Z,0.00
2023-12-17T03:11:25.207Z,0.00
2023-12-17T03:12:26.169Z,0.00
2023-12-17T03:13:27.170Z,0.00
2023-12-17T03:14:28.166Z,0.00
2023-12-17T03:15:29.393Z,0.00
2023-12-17T03:16:30.174Z,0.00
2023-12-17T03:17:31.147Z,0.00
2023-12-17T03:18:32.261Z,0.00
2023-12-17T03:19:33.362Z,0.00
2023-12-17T03:20:34.187Z,0.00
2023-12-17T03:21:35.165Z,0.00
2023-12-17T03:22:36.184Z,0.00
2023-12-17T03:23:37.170Z,0.00
2023-12-17T03:24:38.180Z,0.00
2023-12-17T03:25:39.203Z,0.00
2023-12-17T03:26:40.211Z,0.00
2023-12-17T03:27:41.353Z,0.00
2023-12-17T03:28:42.179Z,0.00
2023-12-17T03:29:43.277Z,0.00
2023-12-17T03:30:44.535Z,0.00
2023-12-17T03:31:45.199Z,0.00
2023-12-17T03:32:46.302Z,0.00
2023-12-17T03:33:47.410Z,0.00
2023-12-17T03:34:48.164Z,0.00
2023-12-17T03:35:49.230Z,0.00
2023-12-17T03:36:50.213Z,0.00
2023-12-17T03:37:51.194Z,0.00
2023-12-17T03:38:52.211Z,0.00
2023-12-17T03:39:53.192Z,0.00
2023-12-17T03:40:54.198Z,0.00
2023-12-17T03:41:55.223Z,0.00
2023-12-17T03:42:56.196Z,0.00
2023-12-17T03:43:57.191Z,0.00
2023-12-17T03:44:58.212Z,0.00
2023-12-17T03:45:59.385Z,0.00
2023-12-17T03:47:00.240Z,0.00
2023-12-17T03:48:01.363Z,0.00
2023-12-17T03:49:02.358Z,0.00
2023-12-17T03:50:03.227Z,0.00
2023-12-17T03:51:04.233Z,0.00
2023-12-17T03:52:05.236Z,0.00
2023-12-17T03:53:06.308Z,0.00
2023-12-17T03:54:07.274Z,0.00
2023-12-17T03:55:08.219Z,0.00
2023-12-17T03:56:09.203Z,0.00
2023-12-17T03:57:10.298Z,0.00
2023-12-17T03:58:11.207Z,0.00
2023-12-17T03:59:12.202Z,0.00
2023-12-17T04:00:13.442Z,0.00
2023-12-17T04:01:14.286Z,0.00
2023-12-17T04:02:15.289Z,0.00
2023-12-17T04:03:16.262Z,0.00
2023-12-17T04:04:17.201Z,0.00
2023-12-17T04:05:18.276Z,0.00
2023-12-17T04:06:19.257Z,0.00
2023-12-17T04:07:20.225Z,0.00
2023-12-17T04:08:21.200Z,0.00
2023-12-17T04:09:22.262Z,0.00
2023-12-17T04:10:23.231Z,0.00
2023-12-17T04:11:24.224Z,0.00
2023-12-17T04:12:25.295Z,0.00
2023-12-17T04:13:26.257Z,0.00
2023-12-17T04:14:27.218Z,0.00
2023-12-17T04:15:28.478Z,0.00
2023-12-17T04:16:29.215Z,0.00
2023-12-17T04:17:30.320Z,0.00
2023-12-17T04:18:31.314Z,0.00
2023-12-17T04:19:32.227Z,0.00
2023-12-17T04:20:33.246Z,0.00
2023-12-17T04:21:34.221Z,0.00
2023-12-17T04:22:35.242Z,0.00
2023-12-17T04:23:36.223Z,0.00
2023-12-17T04:24:37.279Z,0.00
2023-12-17T04:25:38.323Z,0.00
2023-12-17T04:26:39.218Z,0.00
2023-12-17T04:27:40.534Z,0.00
2023-12-17T04:28:41.238Z,0.00
2023-12-17T04:29:42.316Z,0.00
2023-12-17T04:30:43.645Z,0.00
2023-12-17T04:31:44.238Z,0.00
2023-12-17T04:32:45.362Z,0.00
2023-12-17T04:33:46.480Z,0.00
2023-12-17T04:34:47.247Z,0.00
2023-12-17T04:35:48.301Z,0.00
2023-12-17T04:36:49.236Z,0.00
2023-12-17T04:37:50.292Z,0.00
2023-12-17T04:38:51.312Z,0.00
2023-12-17T04:39:52.335Z,0.00
2023-12-17T04:40:53.257Z,0.00
2023-12-17T04:41:54.282Z,0.00
2023-12-17T04:42:55.280Z,0.00
2023-12-17T04:43:56.265Z,0.00
2023-12-17T04:44:57.269Z,0.00
2023-12-17T04:45:58.465Z,0.00
2023-12-17T04:46:59.236Z,0.00
2023-12-17T04:48:00.475Z,0.00
2023-12-17T04:49:01.303Z,0.00
2023-12-17T04:50:02.259Z,0.00
2023-12-17T04:51:03.251Z,0.00
2023-12-17T04:52:04.264Z,0.00
2023-12-17T04:53:05.256Z,0.00
2023-12-17T04:54:06.402Z,0.00
2023-12-17T04:55:07.409Z,0.00
2023-12-17T04:56:08.269Z,0.00
2023-12-17T04:57:09.308Z,0.00
2023-12-17T04:58:10.323Z,0.00
2023-12-17T04:59:11.303Z,0.00
2023-12-17T05:00:12.509Z,0.00
2023-12-17T05:01:13.334Z,0.00
2023-12-17T05:02:14.275Z,0.00
2023-12-17T05:03:15.333Z,0.00
2023-12-17T05:04:16.514Z,0.00
2023-12-17T05:05:17.318Z,0.00
2023-12-17T05:06:18.446Z,0.00
2023-12-17T05:07:19.272Z,0.00
2023-12-17T05:08:20.303Z,0.00
2023-12-17T05:09:21.372Z,0.00
2023-12-17T05:10:22.341Z,0.00
2023-12-17T05:11:23.289Z,0.00
2023-12-17T05:12:24.311Z,0.00
2023-12-17T05:13:25.316Z,0.00
2023-12-17T05:14:26.289Z,0.00
2023-12-17T05:15:27.589Z,0.00
2023-12-17T05:16:28.292Z,0.00
2023-12-17T05:17:29.339Z,0.00
2023-12-17T05:18:30.393Z,0.00
2023-12-17T05:19:31.553Z,0.00
2023-12-17T05:20:32.307Z,0.00
2023-12-17T05:21:33.326Z,0.00
2023-12-17T05:22:34.279Z,0.00
2023-12-17T05:23:35.314Z,0.00
2023-12-17T05:24:36.293Z,0.00
2023-12-17T05:25:37.336Z,0.00
2023-12-17T05:26:38.294Z,0.00
2023-12-17T05:27:39.498Z,0.00
2023-12-17T05:28:40.356Z,0.00
2023-12-17T05:29:41.321Z,0.00
2023-12-17T05:30:45.318Z,0.00
2023-12-17T05:31:43.290Z,0.00
2023-12-17T05:32:44.407Z,0.00
2023-12-17T05:33:45.424Z,0.00
2023-12-17T05:34:46.374Z,0.00
2023-12-17T05:35:47.341Z,0.00
2023-12-17T05:36:48.333Z,0.00
2023-12-17T05:37:49.316Z,0.00
2023-12-17T05:38:50.387Z,0.00
2023-12-17T05:39:51.316Z,0.00
2023-12-17T05:40:52.418Z,0.00
2023-12-17T05:41:53.348Z,0.00
2023-12-17T05:42:54.307Z,0.00
2023-12-17T05:43:55.347Z,0.00
2023-12-17T05:44:56.382Z,0.00
2023-12-17T05:45:59.115Z,0.00
2023-12-17T05:46:58.330Z,0.00
2023-12-17T05:47:59.517Z,0.00
2023-12-17T05:49:00.492Z,0.00
2023-12-17T05:50:01.540Z,0.00
2023-12-17T05:51:02.391Z,0.00
2023-12-17T05:52:03.340Z,0.00
2023-12-17T05:53:04.313Z,0.00
2023-12-17T05:54:05.361Z,0.00
2023-12-17T05:55:06.469Z,0.00
2023-12-17T05:56:07.404Z,0.00
2023-12-17T05:57:08.366Z,0.00
2023-12-17T05:58:09.327Z,0.00
2023-12-17T05:59:10.395Z,0.00
2023-12-17T06:00:11.676Z,0.00
2023-12-17T06:01:12.490Z,0.00
2023-12-17T06:02:13.322Z,0.00
2023-12-17T06:03:14.397Z,0.00
2023-12-17T06:04:15.430Z,0.00
2023-12-17T06:05:16.335Z,0.00
2023-12-17T06:06:17.463Z,0.00
2023-12-17T06:07:18.348Z,0.00
2023-12-17T06:08:19.338Z,0.00
2023-12-17T06:09:20.460Z,0.00
2023-12-17T06:10:21.353Z,0.00
2023-12-17T06:11:22.435Z,0.00
2023-12-17T06:12:23.368Z,0.00
2023-12-17T06:13:24.346Z,0.00
2023-12-17T06:14:25.376Z,0.00
2023-12-17T06:15:26.676Z,0.00
2023-12-17T06:16:27.333Z,0.00
2023-12-17T06:17:28.389Z,0.00
2023-12-17T06:18:29.522Z,0.00
2023-12-17T06:19:30.439Z,0.00
2023-12-17T06:20:31.388Z,0.00
2023-12-17T06:21:32.407Z,0.00
2023-12-17T06:22:33.339Z,0.00
2023-12-17T06:23:34.364Z,0.00
2023-12-17T06:24:35.372Z,0.00
2023-12-17T06:25:36.406Z,0.00
2023-12-17T06:26:37.502Z,0.00
2023-12-17T06:27:38.677Z,0.00
2023-12-17T06:28:39.359Z,0.00
2023-12-17T06:29:40.405Z,0.00
2023-12-17T06:30:41.656Z,0.00
2023-12-17T06:31:42.561Z,0.00
2023-12-17T06:32:43.511Z,0.00
2023-12-17T06:33:44.528Z,0.00
2023-12-17T06:34:45.368Z,0.00
2023-12-17T06:35:46.456Z,0.00
2023-12-17T06:36:47.358Z,0.00
2023-12-17T06:37:48.363Z,0.00
2023-12-17T06:38:49.389Z,0.00
2023-12-17T06:39:50.399Z,0.00
2023-12-17T06:40:51.364Z,0.00
2023-12-17T06:41:52.486Z,0.00
2023-12-17T06:42:53.363Z,0.00
2023-12-17T06:43:54.357Z,0.00
2023-12-17T06:44:55.418Z,0.00
2023-12-17T06:45:56.574Z,0.00
2023-12-17T06:46:57.379Z,0.00
2023-12-17T06:47:58.410Z,0.00
2023-12-17T06:48:59.510Z,0.00
2023-12-17T06:50:00.861Z,0.00
2023-12-17T06:51:01.379Z,0.00
2023-12-17T06:52:02.376Z,0.00
2023-12-17T06:53:03.375Z,0.00
2023-12-17T06:54:04.413Z,0.00
2023-12-17T06:55:05.408Z,0.00
2023-12-17T06:56:06.497Z,0.00
2023-12-17T06:57:07.501Z,0.00
2023-12-17T06:58:08.380Z,0.00
2023-12-17T06:59:09.422Z,0.00
2023-12-17T07:00:11.928Z,0.00
2023-12-17T07:01:11.477Z,0.00
2023-12-17T07:02:12.413Z,0.00
2023-12-17T07:03:13.488Z,0.00
2023-12-17T07:04:14.402Z,0.00
2023-12-17T07:05:15.485Z,0.00
2023-12-17T07:06:16.407Z,0.00
2023-12-17T07:07:17.386Z,0.00
2023-12-17T07:08:18.399Z,0.00
2023-12-17T07:09:19.462Z,0.00
2023-12-17T07:10:20.582Z,0.00
2023-12-17T07:11:21.388Z,0.00
2023-12-17T07:12:22.596Z,0.00
2023-12-17T07:13:23.401Z,0.00
2023-12-17T07:14:24.622Z,0.00
2023-12-17T07:15:25.723Z,0.00
2023-12-17T07:16:26.429Z,0.00
2023-12-17T07:17:27.432Z,0.00
2023-12-17T07:18:28.726Z,0.00
2023-12-17T07:19:29.516Z,0.00
2023-12-17T07:20:30.624Z,0.00
2023-12-17T07:21:31.448Z,0.00
2023-12-17T07:22:32.412Z,0.36
2023-12-17T07:23:33.509Z,0.00
2023-12-17T07:24:34.501Z,0.36
2023-12-17T07:25:35.755Z,0.00
2023-12-17T07:26:36.512Z,0.85
2023-12-17T07:27:37.668Z,0.85
2023-12-17T07:28:38.487Z,1.22
2023-12-17T07:29:45.001Z,0.85
2023-12-17T07:30:40.910Z,0.85
2023-12-17T07:31:41.519Z,1.22
2023-12-17T07:32:42.584Z,1.71
2023-12-17T07:33:43.616Z,2.08
2023-12-17T07:34:44.674Z,2.08
2023-12-17T07:35:45.609Z,3.43
2023-12-17T07:36:46.489Z,3.43
2023-12-17T07:37:47.501Z,4.28
2023-12-17T07:38:48.571Z,4.28
2023-12-17T07:39:49.496Z,5.14
2023-12-17T07:40:50.759Z,4.77
2023-12-17T07:41:51.538Z,4.77
2023-12-17T07:42:52.662Z,4.28
2023-12-17T07:43:53.516Z,5.14
2023-12-17T07:45:55.776Z,6.85
2023-12-17T07:46:56.542Z,7.34
2023-12-17T07:47:57.619Z,7.34
2023-12-17T07:48:58.620Z,8.19
2023-12-17T07:49:59.568Z,7.70
2023-12-17T07:51:00.590Z,8.56
2023-12-17T07:52:01.521Z,7.70
2023-12-17T07:53:02.527Z,9.05
2023-12-17T07:54:03.546Z,9.54
2023-12-17T07:55:04.552Z,10.39
2023-12-17T07:56:05.532Z,10.77
2023-12-17T07:57:06.701Z,10.39
2023-12-17T07:58:07.603Z,9.91
2023-12-17T07:59:08.521Z,9.91
2023-12-17T08:00:09.908Z,11.25
2023-12-17T08:01:10.785Z,12.11
2023-12-17T08:02:11.533Z,13.33
2023-12-17T08:03:12.681Z,14.31
2023-12-17T08:04:13.686Z,13.33
2023-12-17T08:05:14.560Z,12.48
2023-12-17T08:06:15.731Z,13.82
2023-12-17T08:07:16.664Z,14.31
2023-12-17T08:08:17.536Z,14.31
2023-12-17T08:09:18.578Z,13.82
2023-12-17T08:10:19.590Z,15.17
2023-12-17T08:11:20.601Z,16.39
2023-12-17T08:12:21.609Z,17.25
2023-12-17T08:13:22.619Z,19.08
2023-12-17T08:14:23.548Z,17.73
2023-12-17T08:15:24.786Z,17.25
2023-12-17T08:16:25.840Z,17.25
2023-12-17T08:17:26.587Z,17.25
2023-12-17T08:18:27.651Z,17.25
2023-12-17T08:19:28.546Z,17.73
2023-12-17T08:20:29.578Z,18.60
2023-12-17T08:21:30.762Z,18.11
2023-12-17T08:22:31.571Z,19.45
2023-12-17T08:23:32.564Z,18.60
2023-12-17T08:24:33.574Z,17.25
2023-12-17T08:25:34.595Z,15.17
2023-12-17T08:26:35.569Z,18.11
2023-12-17T08:27:36.558Z,21.65
2023-12-17T08:28:37.689Z,22.87
2023-12-17T08:29:38.560Z,23.85
2023-12-17T08:30:39.893Z,21.65
2023-12-17T08:31:40.602Z,21.65
2023-12-17T08:32:42.534Z,24.71
2023-12-17T08:33:42.669Z,27.65
2023-12-17T08:34:43.624Z,26.79
2023-12-17T08:35:44.578Z,24.71
2023-12-17T08:36:45.593Z,21.65
2023-12-17T08:37:46.573Z,21.16
2023-12-17T08:38:47.609Z,22.02
2023-12-17T08:39:48.578Z,22.02
2023-12-17T08:40:49.598Z,21.16
2023-12-17T08:41:50.647Z,21.16
2023-12-17T08:42:51.611Z,20.80
2023-12-17T08:43:52.669Z,22.51
2023-12-17T08:44:53.599Z,23.85
2023-12-17T08:45:54.778Z,23.85
2023-12-17T08:46:55.605Z,26.42
2023-12-17T08:47:56.849Z,26.42
2023-12-17T08:48:57.659Z,24.71
2023-12-17T08:49:58.594Z,27.65
2023-12-17T08:50:59.660Z,30.34
2023-12-17T08:52:00.615Z,32.42
2023-12-17T08:53:01.601Z,32.05
2023-12-17T08:54:02.637Z,30.34
2023-12-17T08:55:03.597Z,31.19
2023-12-17T08:56:04.627Z,32.90
2023-12-17T08:57:05.627Z,32.42
2023-12-17T08:58:06.705Z,31.56
2023-12-17T08:59:07.673Z,32.05
2023-12-17T09:00:08.825Z,27.28
2023-12-17T09:01:09.748Z,31.56
2023-12-17T09:02:10.635Z,30.70
2023-12-17T09:03:11.784Z,28.99
2023-12-17T09:04:12.661Z,32.90
2023-12-17T09:05:13.610Z,35.97
2023-12-17T09:06:14.703Z,41.10
2023-12-17T09:07:15.607Z,39.88
2023-12-17T09:08:16.654Z,38.17
2023-12-17T09:09:17.646Z,40.73
2023-12-17T09:10:18.616Z,35.97
2023-12-17T09:11:19.637Z,35.11
2023-12-17T09:12:20.695Z,41.10
2023-12-17T09:13:21.635Z,35.97
2023-12-17T09:14:22.688Z,34.62
2023-12-17T09:15:23.834Z,35.48
2023-12-17T09:16:24.874Z,36.33
2023-12-17T09:17:25.700Z,37.68
2023-12-17T09:18:26.879Z,39.88
2023-12-17T09:19:27.720Z,36.33
2023-12-17T09:20:28.639Z,35.97
2023-12-17T09:21:29.726Z,32.42
2023-12-17T09:22:30.634Z,33.39
2023-12-17T09:23:31.661Z,33.76
2023-12-17T09:24:32.776Z,28.99
2023-12-17T09:25:33.648Z,36.33
2023-12-17T09:26:34.625Z,33.39
2023-12-17T09:27:35.672Z,29.85
2023-12-17T09:28:36.648Z,30.70
2023-12-17T09:29:37.696Z,30.34
2023-12-17T09:30:38.920Z,33.76
2023-12-17T09:31:39.631Z,29.48
2023-12-17T09:32:40.697Z,28.63
2023-12-17T09:33:41.861Z,32.05
2023-12-17T09:34:42.719Z,29.85
2023-12-17T09:35:43.648Z,33.39
2023-12-17T09:36:44.636Z,30.70
2023-12-17T09:37:45.644Z,36.33
2023-12-17T09:38:46.716Z,38.17
2023-12-17T09:39:47.664Z,39.88
2023-12-17T09:40:48.676Z,39.39
2023-12-17T09:41:49.670Z,31.19
2023-12-17T09:42:50.675Z,30.70
2023-12-17T09:43:51.652Z,32.90
2023-12-17T09:44:52.765Z,31.19
2023-12-17T09:45:53.851Z,32.42
2023-12-17T09:46:54.649Z,28.14
2023-12-17T09:47:55.792Z,32.05
2023-12-17T09:48:56.788Z,33.39
2023-12-17T09:49:57.736Z,34.25
2023-12-17T09:50:58.801Z,32.05
2023-12-17T09:51:59.686Z,31.19
2023-12-17T09:53:00.674Z,35.97
2023-12-17T09:54:01.708Z,32.42
2023-12-17T09:55:02.682Z,30.34
2023-12-17T09:56:03.681Z,35.11
2023-12-17T09:57:04.674Z,31.56
2023-12-17T09:58:05.669Z,36.33
2023-12-17T09:59:06.755Z,39.02
2023-12-17T10:00:08.038Z,37.19
2023-12-17T10:01:08.889Z,35.97
2023-12-17T10:02:09.701Z,37.19
2023-12-17T10:03:10.815Z,38.53
2023-12-17T10:04:11.749Z,38.17
2023-12-17T10:05:12.779Z,36.82
2023-12-17T10:06:13.703Z,36.82
2023-12-17T10:07:14.698Z,39.39
2023-12-17T10:08:15.681Z,38.53
2023-12-17T10:09:16.773Z,42.45
2023-12-17T10:10:17.715Z,43.31
2023-12-17T10:11:18.682Z,36.33
2023-12-17T10:12:19.872Z,33.39
2023-12-17T10:13:20.704Z,38.17
2023-12-17T10:14:21.692Z,35.97
2023-12-17T10:15:23.029Z,36.82
2023-12-17T10:16:23.758Z,41.96
2023-12-17T10:17:24.738Z,39.02
2023-12-17T10:18:25.852Z,39.88
2023-12-17T10:19:29.390Z,41.59
2023-12-17T10:20:27.727Z,39.39
2023-12-17T10:21:28.789Z,40.24
2023-12-17T10:22:29.998Z,47.71
2023-12-17T10:23:30.698Z,50.28
2023-12-17T10:24:31.750Z,49.42
2023-12-17T10:25:32.745Z,48.56
2023-12-17T10:26:33.688Z,40.24
2023-12-17T10:27:34.940Z,47.71
2023-12-17T10:28:35.690Z,49.79
2023-12-17T10:29:36.717Z,52.48
2023-12-17T10:30:37.963Z,44.16
2023-12-17T10:31:38.750Z,44.16
2023-12-17T10:32:39.797Z,43.80
2023-12-17T10:33:40.959Z,46.73
2023-12-17T10:34:41.927Z,41.96
2023-12-17T10:35:42.727Z,36.82
2023-12-17T10:36:43.709Z,41.10
2023-12-17T10:37:44.728Z,36.33
2023-12-17T10:38:45.718Z,39.39
2023-12-17T10:39:46.709Z,40.24
2023-12-17T10:40:47.780Z,42.45
2023-12-17T10:41:48.812Z,37.19
2023-12-17T10:42:49.781Z,44.16
2023-12-17T10:43:50.805Z,39.88
2023-12-17T10:44:51.817Z,36.82
2023-12-17T10:45:52.999Z,40.24
2023-12-17T10:46:53.792Z,36.82
2023-12-17T10:47:54.818Z,40.73
2023-12-17T10:48:55.903Z,42.45
2023-12-17T10:49:56.809Z,47.71
2023-12-17T10:50:57.835Z,46.73
2023-12-17T10:51:58.721Z,40.24
2023-12-17T10:52:59.752Z,46.36
2023-12-17T10:54:00.788Z,46.73
2023-12-17T10:55:01.750Z,43.31
2023-12-17T10:56:02.743Z,41.96
2023-12-17T10:57:03.772Z,41.10
2023-12-17T10:58:04.837Z,43.31
2023-12-17T10:59:05.748Z,46.73
2023-12-17T11:00:07.056Z,48.56
2023-12-17T11:01:07.826Z,45.51
2023-12-17T11:02:08.911Z,46.36
2023-12-17T11:03:14.865Z,41.10
2023-12-17T11:04:10.920Z,39.88
2023-12-17T11:05:11.787Z,49.79
2023-12-17T11:06:12.909Z,54.56
2023-12-17T11:07:16.849Z,44.65
2023-12-17T11:08:19.890Z,45.51
2023-12-17T11:09:15.769Z,54.19
2023-12-17T11:10:16.806Z,47.71
2023-12-17T11:11:17.753Z,45.87
2023-12-17T11:12:18.763Z,46.73
2023-12-17T11:13:19.892Z,47.22
2023-12-17T11:14:20.767Z,47.22
2023-12-17T11:15:22.020Z,48.93
2023-12-17T11:16:22.759Z,45.87
2023-12-17T11:17:23.866Z,46.36
2023-12-17T11:18:29.887Z,46.36
2023-12-17T11:19:25.874Z,52.48
2023-12-17T11:20:26.797Z,60.19
2023-12-17T11:21:27.836Z,52.48
2023-12-17T11:22:28.810Z,48.56
2023-12-17T11:23:29.901Z,57.62
2023-12-17T11:24:30.855Z,58.97
2023-12-17T11:25:31.773Z,58.11
2023-12-17T11:26:32.767Z,54.19
2023-12-17T11:27:35.779Z,61.17
2023-12-17T11:28:34.773Z,51.14
2023-12-17T11:29:35.822Z,48.07
2023-12-17T11:30:37.034Z,48.56
2023-12-17T11:31:37.830Z,44.16
2023-12-17T11:32:39.007Z,42.94
2023-12-17T11:33:41.027Z,47.22
2023-12-17T11:34:41.025Z,38.17
2023-12-17T11:35:41.813Z,35.97
2023-12-17T11:36:42.776Z,37.68
2023-12-17T11:37:43.795Z,39.02
2023-12-17T11:38:44.812Z,44.16
2023-12-17T11:39:45.818Z,40.24
2023-12-17T11:40:46.795Z,45.02
2023-12-17T11:41:47.791Z,41.96
2023-12-17T11:42:48.785Z,41.59
2023-12-17T11:43:49.828Z,46.73
2023-12-17T11:44:50.853Z,42.94
2023-12-17T11:45:51.980Z,45.87
2023-12-17T11:46:52.900Z,50.28
2023-12-17T11:47:58.876Z,45.51
2023-12-17T11:48:54.860Z,45.02
2023-12-17T11:49:55.865Z,45.87
2023-12-17T11:50:56.935Z,50.65
2023-12-17T11:51:57.806Z,41.59
2023-12-17T11:52:58.820Z,39.88
2023-12-17T11:55:00.908Z,41.96
2023-12-17T11:56:01.804Z,40.73
2023-12-17T11:57:02.877Z,42.94
2023-12-17T11:58:03.815Z,45.87
2023-12-17T11:59:04.801Z,46.73
2023-12-17T12:00:06.080Z,40.24
2023-12-17T12:01:07.207Z,36.82
2023-12-17T12:02:07.827Z,40.24
2023-12-17T12:03:08.930Z,46.36
2023-12-17T12:04:09.947Z,40.24
2023-12-17T12:05:11.227Z,40.24
2023-12-17T12:06:11.870Z,43.80
2023-12-17T12:07:12.804Z,43.80
2023-12-17T12:08:13.823Z,45.02
2023-12-17T12:09:14.816Z,44.65
2023-12-17T12:10:21.200Z,44.16
2023-12-17T12:11:16.892Z,46.36
2023-12-17T12:12:17.833Z,45.51
2023-12-17T12:13:18.808Z,46.73
2023-12-17T12:14:19.843Z,45.02
2023-12-17T12:15:21.105Z,44.65
2023-12-17T12:16:23.033Z,57.25
2023-12-17T12:17:22.884Z,50.28
2023-12-17T12:18:24.140Z,49.79
2023-12-17T12:19:29.567Z,51.50
2023-12-17T12:20:25.847Z,56.27
2023-12-17T12:21:27.090Z,61.17
2023-12-17T12:22:27.842Z,58.11
2023-12-17T12:23:28.832Z,59.33
2023-12-17T12:24:29.890Z,64.96
2023-12-17T12:25:30.860Z,55.05
2023-12-17T12:26:31.910Z,64.59
2023-12-17T12:27:33.104Z,70.71
2023-12-17T12:28:33.837Z,70.22
2023-12-17T12:29:34.832Z,60.19
2023-12-17T12:30:36.184Z,75.48
2023-12-17T12:31:41.884Z,71.56
2023-12-17T12:32:37.868Z,73.28
2023-12-17T12:33:39.167Z,71.56
2023-12-17T12:34:40.045Z,68.02
2023-12-17T12:35:40.852Z,65.45
2023-12-17T12:36:41.859Z,66.80
2023-12-17T12:37:43.162Z,61.17
2023-12-17T12:38:43.841Z,60.68
2023-12-17T12:39:55.010Z,72.42
2023-12-17T12:40:45.901Z,73.28
2023-12-17T12:41:46.998Z,68.87
2023-12-17T12:42:47.840Z,76.70
2023-12-17T12:43:48.832Z,61.53
2023-12-17T12:44:49.920Z,53.70
2023-12-17T12:45:51.039Z,59.33
2023-12-17T12:46:57.321Z,63.24
2023-12-17T12:47:53.041Z,56.27
2023-12-17T12:48:54.054Z,55.90
2023-12-17T12:49:54.861Z,53.34
2023-12-17T12:50:55.905Z,47.22
2023-12-17T12:51:56.865Z,47.22
2023-12-17T12:53:12.078Z,51.14
2023-12-17T12:53:58.917Z,49.79
2023-12-17T12:54:59.823Z,56.76
2023-12-17T12:56:00.909Z,55.90
2023-12-17T12:57:01.932Z,45.51
2023-12-17T12:59:22.252Z,52.85
2023-12-17T13:00:05.117Z,52.85
2023-12-17T13:01:05.935Z,54.56
2023-12-17T13:02:07.061Z,60.19
2023-12-17T13:03:08.048Z,59.33
2023-12-17T13:04:08.956Z,60.19
2023-12-17T13:05:09.895Z,51.50
2023-12-17T13:06:11.015Z,54.56
2023-12-17T13:07:11.998Z,53.70
2023-12-17T13:08:12.913Z,55.05
2023-12-17T13:10:20.005Z,60.19
2023-12-17T13:11:15.916Z,56.27
2023-12-17T13:12:16.917Z,55.90
2023-12-17T13:13:17.895Z,48.07
2023-12-17T13:14:18.947Z,49.79
2023-12-17T13:15:20.157Z,52.48
2023-12-17T13:16:20.882Z,52.85
2023-12-17T13:17:21.896Z,56.76
2023-12-17T13:18:23.143Z,54.19
2023-12-17T13:19:24.766Z,55.05
2023-12-17T13:21:25.978Z,42.45
2023-12-17T13:22:26.924Z,46.73
2023-12-17T13:23:27.908Z,41.96
2023-12-17T13:24:31.173Z,55.05
2023-12-17T13:25:29.952Z,41.96
2023-12-17T13:26:30.991Z,50.28
2023-12-17T13:27:31.977Z,43.80
2023-12-17T13:28:32.910Z,45.51
2023-12-17T13:29:33.912Z,45.87